sensor_id;sensor_type;location;lat;lon;timestamp;P1;P2;P0
79141;PMS5003;68550;-26.480;29.234;2023-06-26T00:00:52;84;83;
79141;PMS5003;68550;-26.480;29.234;2023-06-26T00:03:18;92;91;
79141;PMS5003;68550;-26.480;29.234;2023-06-26T00:05:43;89;88;
79141;PMS5003;68550;-26.480;29.234;2023-06-26T00:08:08;88;87;
79141;PMS5003;68550;-26.480;29.234;2023-06-26T00:10:33;92;90;
79141;PMS5003;68550;-26.480;29.234;2023-06-26T00:12:59;99;96;
79141;PMS5003;68550;-26.480;29.234;2023-06-26T00:15:24;88;86;
79141;PMS5003;68550;-26.480;29.234;2023-06-26T00:17:53;92;91;
79141;PMS5003;68550;-26.480;29.234;2023-06-26T00:20:14;96;95;
79141;PMS5003;68550;-26.480;29.234;2023-06-26T00:22:40;95;93;
79141;PMS5003;68550;-26.480;29.234;2023-06-26T00:25:06;94;92;
79141;PMS5003;68550;-26.480;29.234;2023-06-26T00:27:32;89;84;
79141;PMS5003;68550;-26.480;29.234;2023-06-26T00:29:56;89;86;
79141;PMS5003;68550;-26.480;29.234;2023-06-26T00:32:21;88;87;
79141;PMS5003;68550;-26.480;29.234;2023-06-26T00:34:47;94;91;
79141;PMS5003;68550;-26.480;29.234;2023-06-26T00:37:12;98;93;
79141;PMS5003;68550;-26.480;29.234;2023-06-26T00:39:38;90;86;
79141;PMS5003;68550;-26.480;29.234;2023-06-26T00:42:04;97;92;
79141;PMS5003;68550;-26.480;29.234;2023-06-26T00:44:30;96;90;
79141;PMS5003;68550;-26.480;29.234;2023-06-26T00:46:55;92;91;
79141;PMS5003;68550;-26.480;29.234;2023-06-26T00:49:21;93;91;
79141;PMS5003;68550;-26.480;29.234;2023-06-26T00:51:46;92;90;
79141;PMS5003;68550;-26.480;29.234;2023-06-26T00:54:15;95;92;
79141;PMS5003;68550;-26.480;29.234;2023-06-26T00:56:37;95;94;
79141;PMS5003;68550;-26.480;29.234;2023-06-26T00:59:03;98;95;
79141;PMS5003;68550;-26.480;29.234;2023-06-26T01:01:28;97;96;
79141;PMS5003;68550;-26.480;29.234;2023-06-26T01:03:54;97;94;
79141;PMS5003;68550;-26.480;29.234;2023-06-26T01:06:20;100;99;
79141;PMS5003;68550;-26.480;29.234;2023-06-26T01:08:45;94;91;
79141;PMS5003;68550;-26.480;29.234;2023-06-26T01:11:11;94;91;
79141;PMS5003;68550;-26.480;29.234;2023-06-26T01:13:38;94;92;
79141;PMS5003;68550;-26.480;29.234;2023-06-26T01:16:02;95;93;
79141;PMS5003;68550;-26.480;29.234;2023-06-26T01:18:28;90;90;
79141;PMS5003;68550;-26.480;29.234;2023-06-26T01:20:53;104;101;
79141;PMS5003;68550;-26.480;29.234;2023-06-26T01:23:20;94;93;
79141;PMS5003;68550;-26.480;29.234;2023-06-26T01:25:48;97;94;
79141;PMS5003;68550;-26.480;29.234;2023-06-26T01:28:09;94;93;
79141;PMS5003;68550;-26.480;29.234;2023-06-26T01:30:35;93;89;
79141;PMS5003;68550;-26.480;29.234;2023-06-26T01:33:00;97;93;
79141;PMS5003;68550;-26.480;29.234;2023-06-26T01:35:25;104;99;
79141;PMS5003;68550;-26.480;29.234;2023-06-26T01:37:51;97;94;
79141;PMS5003;68550;-26.480;29.234;2023-06-26T01:40:16;98;97;
79141;PMS5003;68550;-26.480;29.234;2023-06-26T01:42:42;101;99;
79141;PMS5003;68550;-26.480;29.234;2023-06-26T01:45:10;92;91;
79141;PMS5003;68550;-26.480;29.234;2023-06-26T01:47:33;100;97;
79141;PMS5003;68550;-26.480;29.234;2023-06-26T01:49:59;101;100;
79141;PMS5003;68550;-26.480;29.234;2023-06-26T01:52:24;103;101;
79141;PMS5003;68550;-26.480;29.234;2023-06-26T01:54:54;103;99;
79141;PMS5003;68550;-26.480;29.234;2023-06-26T01:57:13;96;94;
79141;PMS5003;68550;-26.480;29.234;2023-06-26T01:59:39;94;92;
79141;PMS5003;68550;-26.480;29.234;2023-06-26T02:02:07;106;100;
79141;PMS5003;68550;-26.480;29.234;2023-06-26T02:04:30;92;91;
79141;PMS5003;68550;-26.480;29.234;2023-06-26T02:06:56;95;93;
79141;PMS5003;68550;-26.480;29.234;2023-06-26T02:09:21;102;101;
79141;PMS5003;68550;-26.480;29.234;2023-06-26T02:11:50;95;93;
79141;PMS5003;68550;-26.480;29.234;2023-06-26T02:14:11;95;95;
79141;PMS5003;68550;-26.480;29.234;2023-06-26T02:16:38;95;93;
79141;PMS5003;68550;-26.480;29.234;2023-06-26T02:19:02;104;96;
79141;PMS5003;68550;-26.480;29.234;2023-06-26T02:21:29;94;94;
79141;PMS5003;68550;-26.480;29.234;2023-06-26T02:23:54;101;98;
79141;PMS5003;68550;-26.480;29.234;2023-06-26T02:26:21;104;103;
79141;PMS5003;68550;-26.480;29.234;2023-06-26T02:28:45;95;94;
79141;PMS5003;68550;-26.480;29.234;2023-06-26T02:31:10;105;101;
79141;PMS5003;68550;-26.480;29.234;2023-06-26T02:33:35;102;100;
79141;PMS5003;68550;-26.480;29.234;2023-06-26T02:36:01;101;100;
79141;PMS5003;68550;-26.480;29.234;2023-06-26T02:38:26;104;99;
79141;PMS5003;68550;-26.480;29.234;2023-06-26T02:40:51;98;96;
79141;PMS5003;68550;-26.480;29.234;2023-06-26T02:43:17;90;88;
79141;PMS5003;68550;-26.480;29.234;2023-06-26T02:45:43;100;96;
79141;PMS5003;68550;-26.480;29.234;2023-06-26T02:48:10;99;97;
79141;PMS5003;68550;-26.480;29.234;2023-06-26T02:50:34;101;101;
79141;PMS5003;68550;-26.480;29.234;2023-06-26T02:52:59;101;99;
79141;PMS5003;68550;-26.480;29.234;2023-06-26T02:55:25;102;100;
79141;PMS5003;68550;-26.480;29.234;2023-06-26T02:57:50;93;90;
79141;PMS5003;68550;-26.480;29.234;2023-06-26T03:00:17;99;98;
79141;PMS5003;68550;-26.480;29.234;2023-06-26T03:02:41;109;107;
79141;PMS5003;68550;-26.480;29.234;2023-06-26T03:05:07;95;93;
79141;PMS5003;68550;-26.480;29.234;2023-06-26T03:07:32;100;97;
79141;PMS5003;68550;-26.480;29.234;2023-06-26T03:09:58;107;105;
79141;PMS5003;68550;-26.480;29.234;2023-06-26T03:12:25;110;103;
79141;PMS5003;68550;-26.480;29.234;2023-06-26T03:14:49;108;105;
79141;PMS5003;68550;-26.480;29.234;2023-06-26T03:17:15;109;106;
79141;PMS5003;68550;-26.480;29.234;2023-06-26T03:19:40;108;105;
79141;PMS5003;68550;-26.480;29.234;2023-06-26T03:22:06;107;102;
79141;PMS5003;68550;-26.480;29.234;2023-06-26T03:24:31;105;103;
79141;PMS5003;68550;-26.480;29.234;2023-06-26T03:26:57;113;107;
79141;PMS5003;68550;-26.480;29.234;2023-06-26T03:29:22;112;107;
79141;PMS5003;68550;-26.480;29.234;2023-06-26T03:31:47;112;108;
79141;PMS5003;68550;-26.480;29.234;2023-06-26T03:34:12;112;108;
79141;PMS5003;68550;-26.480;29.234;2023-06-26T03:36:38;116;113;
79141;PMS5003;68550;-26.480;29.234;2023-06-26T03:39:03;108;106;
79141;PMS5003;68550;-26.480;29.234;2023-06-26T03:41:29;113;111;
79141;PMS5003;68550;-26.480;29.234;2023-06-26T03:43:55;114;112;
79141;PMS5003;68550;-26.480;29.234;2023-06-26T03:46:21;108;108;
79141;PMS5003;68550;-26.480;29.234;2023-06-26T03:48:46;101;100;
79141;PMS5003;68550;-26.480;29.234;2023-06-26T03:51:11;101;101;
79141;PMS5003;68550;-26.480;29.234;2023-06-26T03:53:37;105;103;
79141;PMS5003;68550;-26.480;29.234;2023-06-26T03:56:02;107;103;
79141;PMS5003;68550;-26.480;29.234;2023-06-26T03:58:28;102;100;
79141;PMS5003;68550;-26.480;29.234;2023-06-26T04:00:54;117;110;
79141;PMS5003;68550;-26.480;29.234;2023-06-26T04:03:19;111;107;
79141;PMS5003;68550;-26.480;29.234;2023-06-26T04:05:46;110;108;
79141;PMS5003;68550;-26.480;29.234;2023-06-26T04:08:10;105;103;
79141;PMS5003;68550;-26.480;29.234;2023-06-26T04:10:35;107;104;
79141;PMS5003;68550;-26.480;29.234;2023-06-26T04:13:00;114;109;
79141;PMS5003;68550;-26.480;29.234;2023-06-26T04:15:26;117;117;
79141;PMS5003;68550;-26.480;29.234;2023-06-26T04:17:51;113;111;
79141;PMS5003;68550;-26.480;29.234;2023-06-26T04:20:18;121;119;
79141;PMS5003;68550;-26.480;29.234;2023-06-26T04:22:43;120;113;
79141;PMS5003;68550;-26.480;29.234;2023-06-26T04:25:08;114;108;
79141;PMS5003;68550;-26.480;29.234;2023-06-26T04:27:33;114;111;
79141;PMS5003;68550;-26.480;29.234;2023-06-26T04:30:00;120;116;
79141;PMS5003;68550;-26.480;29.234;2023-06-26T04:32:24;118;113;
79141;PMS5003;68550;-26.480;29.234;2023-06-26T04:34:48;114;112;
79141;PMS5003;68550;-26.480;29.234;2023-06-26T04:37:13;117;115;
79141;PMS5003;68550;-26.480;29.234;2023-06-26T04:39:39;114;114;
79141;PMS5003;68550;-26.480;29.234;2023-06-26T04:42:05;113;111;
79141;PMS5003;68550;-26.480;29.234;2023-06-26T04:44:31;120;119;
79141;PMS5003;68550;-26.480;29.234;2023-06-26T04:46:57;122;118;
79141;PMS5003;68550;-26.480;29.234;2023-06-26T04:49:20;127;123;
79141;PMS5003;68550;-26.480;29.234;2023-06-26T04:51:45;124;121;
79141;PMS5003;68550;-26.480;29.234;2023-06-26T04:54:11;124;118;
79141;PMS5003;68550;-26.480;29.234;2023-06-26T04:56:37;185;178;
79141;PMS5003;68550;-26.480;29.234;2023-06-26T04:59:03;183;175;
79141;PMS5003;68550;-26.480;29.234;2023-06-26T05:01:28;148;146;
79141;PMS5003;68550;-26.480;29.234;2023-06-26T05:03:53;135;131;
79141;PMS5003;68550;-26.480;29.234;2023-06-26T05:06:18;144;142;
79141;PMS5003;68550;-26.480;29.234;2023-06-26T05:08:44;141;137;
79141;PMS5003;68550;-26.480;29.234;2023-06-26T05:11:10;154;151;
79141;PMS5003;68550;-26.480;29.234;2023-06-26T05:13:34;147;142;
79141;PMS5003;68550;-26.480;29.234;2023-06-26T05:16:00;157;149;
79141;PMS5003;68550;-26.480;29.234;2023-06-26T05:18:26;162;154;
79141;PMS5003;68550;-26.480;29.234;2023-06-26T05:20:51;151;145;
79141;PMS5003;68550;-26.480;29.234;2023-06-26T05:23:19;152;148;
79141;PMS5003;68550;-26.480;29.234;2023-06-26T05:25:42;149;146;
79141;PMS5003;68550;-26.480;29.234;2023-06-26T05:28:08;143;137;
79141;PMS5003;68550;-26.480;29.234;2023-06-26T05:30:33;160;153;
79141;PMS5003;68550;-26.480;29.234;2023-06-26T05:32:58;158;157;
79141;PMS5003;68550;-26.480;29.234;2023-06-26T05:35:23;152;145;
79141;PMS5003;68550;-26.480;29.234;2023-06-26T05:37:49;152;142;
79141;PMS5003;68550;-26.480;29.234;2023-06-26T05:40:15;153;145;
79141;PMS5003;68550;-26.480;29.234;2023-06-26T05:42:40;148;142;
79141;PMS5003;68550;-26.480;29.234;2023-06-26T05:45:05;142;138;
79141;PMS5003;68550;-26.480;29.234;2023-06-26T05:47:30;148;142;
79141;PMS5003;68550;-26.480;29.234;2023-06-26T05:49:57;145;143;
79141;PMS5003;68550;-26.480;29.234;2023-06-26T05:52:21;146;143;
79141;PMS5003;68550;-26.480;29.234;2023-06-26T05:54:46;152;147;
79141;PMS5003;68550;-26.480;29.234;2023-06-26T05:57:12;149;145;
79141;PMS5003;68550;-26.480;29.234;2023-06-26T05:59:37;146;142;
79141;PMS5003;68550;-26.480;29.234;2023-06-26T06:02:03;140;138;
79141;PMS5003;68550;-26.480;29.234;2023-06-26T06:04:28;150;143;
79141;PMS5003;68550;-26.480;29.234;2023-06-26T06:06:53;145;142;
79141;PMS5003;68550;-26.480;29.234;2023-06-26T06:09:18;141;138;
79141;PMS5003;68550;-26.480;29.234;2023-06-26T06:11:43;142;139;
79141;PMS5003;68550;-26.480;29.234;2023-06-26T06:14:08;140;134;
79141;PMS5003;68550;-26.480;29.234;2023-06-26T06:16:34;136;131;
79141;PMS5003;68550;-26.480;29.234;2023-06-26T06:19:01;133;127;
79141;PMS5003;68550;-26.480;29.234;2023-06-26T06:21:25;129;128;
79141;PMS5003;68550;-26.480;29.234;2023-06-26T06:23:51;148;146;
79141;PMS5003;68550;-26.480;29.234;2023-06-26T06:26:16;137;135;
79141;PMS5003;68550;-26.480;29.234;2023-06-26T06:28:42;138;134;
79141;PMS5003;68550;-26.480;29.234;2023-06-26T06:31:10;138;136;
79141;PMS5003;68550;-26.480;29.234;2023-06-26T06:33:32;135;134;
79141;PMS5003;68550;-26.480;29.234;2023-06-26T06:36:00;139;137;
79141;PMS5003;68550;-26.480;29.234;2023-06-26T06:38:24;136;130;
79141;PMS5003;68550;-26.480;29.234;2023-06-26T06:40:49;140;134;
79141;PMS5003;68550;-26.480;29.234;2023-06-26T06:43:16;144;142;
79141;PMS5003;68550;-26.480;29.234;2023-06-26T06:45:40;136;132;
79141;PMS5003;68550;-26.480;29.234;2023-06-26T06:48:05;137;133;
79141;PMS5003;68550;-26.480;29.234;2023-06-26T06:50:31;137;131;
79141;PMS5003;68550;-26.480;29.234;2023-06-26T06:52:56;136;133;
79141;PMS5003;68550;-26.480;29.234;2023-06-26T06:55:22;125;123;
79141;PMS5003;68550;-26.480;29.234;2023-06-26T06:57:48;126;122;
79141;PMS5003;68550;-26.480;29.234;2023-06-26T07:00:13;122;119;
79141;PMS5003;68550;-26.480;29.234;2023-06-26T07:02:39;130;121;
79141;PMS5003;68550;-26.480;29.234;2023-06-26T07:05:04;131;125;
79141;PMS5003;68550;-26.480;29.234;2023-06-26T07:07:32;136;133;
79141;PMS5003;68550;-26.480;29.234;2023-06-26T07:09:55;132;126;
79141;PMS5003;68550;-26.480;29.234;2023-06-26T07:12:20;125;120;
79141;PMS5003;68550;-26.480;29.234;2023-06-26T07:14:46;127;125;
79141;PMS5003;68550;-26.480;29.234;2023-06-26T07:17:11;112;111;
79141;PMS5003;68550;-26.480;29.234;2023-06-26T07:19:37;123;121;
79141;PMS5003;68550;-26.480;29.234;2023-06-26T07:22:02;130;126;
79141;PMS5003;68550;-26.480;29.234;2023-06-26T07:24:27;116;112;
79141;PMS5003;68550;-26.480;29.234;2023-06-26T07:26:53;118;115;
79141;PMS5003;68550;-26.480;29.234;2023-06-26T07:29:18;116;113;
79141;PMS5003;68550;-26.480;29.234;2023-06-26T07:31:43;110;106;
79141;PMS5003;68550;-26.480;29.234;2023-06-26T07:34:09;114;113;
79141;PMS5003;68550;-26.480;29.234;2023-06-26T07:36:36;111;110;
79141;PMS5003;68550;-26.480;29.234;2023-06-26T07:39:00;109;106;
79141;PMS5003;68550;-26.480;29.234;2023-06-26T07:41:25;110;109;
79141;PMS5003;68550;-26.480;29.234;2023-06-26T07:43:51;109;106;
79141;PMS5003;68550;-26.480;29.234;2023-06-26T07:46:16;104;103;
79141;PMS5003;68550;-26.480;29.234;2023-06-26T07:48:41;106;102;
79141;PMS5003;68550;-26.480;29.234;2023-06-26T07:51:06;104;101;
79141;PMS5003;68550;-26.480;29.234;2023-06-26T07:53:32;108;107;
79141;PMS5003;68550;-26.480;29.234;2023-06-26T07:55:59;101;100;
79141;PMS5003;68550;-26.480;29.234;2023-06-26T07:58:23;97;96;
79141;PMS5003;68550;-26.480;29.234;2023-06-26T08:00:48;114;108;
79141;PMS5003;68550;-26.480;29.234;2023-06-26T08:03:15;96;94;
79141;PMS5003;68550;-26.480;29.234;2023-06-26T08:05:40;96;96;
79141;PMS5003;68550;-26.480;29.234;2023-06-26T08:08:05;95;92;
79141;PMS5003;68550;-26.480;29.234;2023-06-26T08:10:30;91;90;
79141;PMS5003;68550;-26.480;29.234;2023-06-26T08:12:55;104;101;
79141;PMS5003;68550;-26.480;29.234;2023-06-26T08:15:20;99;94;
79141;PMS5003;68550;-26.480;29.234;2023-06-26T08:17:45;94;92;
79141;PMS5003;68550;-26.480;29.234;2023-06-26T08:20:11;96;92;
79141;PMS5003;68550;-26.480;29.234;2023-06-26T08:22:36;92;90;
79141;PMS5003;68550;-26.480;29.234;2023-06-26T08:25:02;90;87;
79141;PMS5003;68550;-26.480;29.234;2023-06-26T08:27:26;86;85;
79141;PMS5003;68550;-26.480;29.234;2023-06-26T08:29:52;96;95;
79141;PMS5003;68550;-26.480;29.234;2023-06-26T08:32:20;85;85;
79141;PMS5003;68550;-26.480;29.234;2023-06-26T08:34:46;92;91;
79141;PMS5003;68550;-26.480;29.234;2023-06-26T08:37:08;90;87;
79141;PMS5003;68550;-26.480;29.234;2023-06-26T08:39:33;92;88;
79141;PMS5003;68550;-26.480;29.234;2023-06-26T08:41:59;84;82;
79141;PMS5003;68550;-26.480;29.234;2023-06-26T08:44:24;92;90;
79141;PMS5003;68550;-26.480;29.234;2023-06-26T08:46:51;89;85;
79141;PMS5003;68550;-26.480;29.234;2023-06-26T08:49:18;86;81;
79141;PMS5003;68550;-26.480;29.234;2023-06-26T08:51:40;80;77;
79141;PMS5003;68550;-26.480;29.234;2023-06-26T08:54:06;78;77;
79141;PMS5003;68550;-26.480;29.234;2023-06-26T08:56:31;85;83;
79141;PMS5003;68550;-26.480;29.234;2023-06-26T08:58:57;82;79;
79141;PMS5003;68550;-26.480;29.234;2023-06-26T09:01:22;86;81;
79141;PMS5003;68550;-26.480;29.234;2023-06-26T09:03:48;79;75;
79141;PMS5003;68550;-26.480;29.234;2023-06-26T09:06:13;78;77;
79141;PMS5003;68550;-26.480;29.234;2023-06-26T09:08:38;82;80;
79141;PMS5003;68550;-26.480;29.234;2023-06-26T09:11:08;80;79;
79141;PMS5003;68550;-26.480;29.234;2023-06-26T09:13:29;72;70;
79141;PMS5003;68550;-26.480;29.234;2023-06-26T09:15:54;78;76;
79141;PMS5003;68550;-26.480;29.234;2023-06-26T09:18:20;75;74;
79141;PMS5003;68550;-26.480;29.234;2023-06-26T09:20:45;74;72;
79141;PMS5003;68550;-26.480;29.234;2023-06-26T09:23:11;78;75;
79141;PMS5003;68550;-26.480;29.234;2023-06-26T09:25:38;76;73;
79141;PMS5003;68550;-26.480;29.234;2023-06-26T09:28:02;72;71;
79141;PMS5003;68550;-26.480;29.234;2023-06-26T09:30:28;69;69;
79141;PMS5003;68550;-26.480;29.234;2023-06-26T09:32:55;69;68;
79141;PMS5003;68550;-26.480;29.234;2023-06-26T09:35:19;70;69;
79141;PMS5003;68550;-26.480;29.234;2023-06-26T09:37:44;79;75;
79141;PMS5003;68550;-26.480;29.234;2023-06-26T09:40:10;75;73;
79141;PMS5003;68550;-26.480;29.234;2023-06-26T09:42:35;70;68;
79141;PMS5003;68550;-26.480;29.234;2023-06-26T09:45:01;69;68;
79141;PMS5003;68550;-26.480;29.234;2023-06-26T09:47:26;67;66;
79141;PMS5003;68550;-26.480;29.234;2023-06-26T09:49:52;67;66;
79141;PMS5003;68550;-26.480;29.234;2023-06-26T09:52:17;60;60;
79141;PMS5003;68550;-26.480;29.234;2023-06-26T09:54:42;69;68;
79141;PMS5003;68550;-26.480;29.234;2023-06-26T09:57:07;72;71;
79141;PMS5003;68550;-26.480;29.234;2023-06-26T09:59:33;62;61;
79141;PMS5003;68550;-26.480;29.234;2023-06-26T10:01:59;67;64;
79141;PMS5003;68550;-26.480;29.234;2023-06-26T10:04:24;71;70;
79141;PMS5003;68550;-26.480;29.234;2023-06-26T10:06:51;66;65;
79141;PMS5003;68550;-26.480;29.234;2023-06-26T10:09:16;69;68;
79141;PMS5003;68550;-26.480;29.234;2023-06-26T10:11:41;66;66;
79141;PMS5003;68550;-26.480;29.234;2023-06-26T10:14:07;66;63;
79141;PMS5003;68550;-26.480;29.234;2023-06-26T10:16:32;67;64;
79141;PMS5003;68550;-26.480;29.234;2023-06-26T10:18:58;62;61;
79141;PMS5003;68550;-26.480;29.234;2023-06-26T10:21:24;70;69;
79141;PMS5003;68550;-26.480;29.234;2023-06-26T10:23:48;67;64;
79141;PMS5003;68550;-26.480;29.234;2023-06-26T10:26:14;69;67;
79141;PMS5003;68550;-26.480;29.234;2023-06-26T10:28:39;64;61;
79141;PMS5003;68550;-26.480;29.234;2023-06-26T10:31:09;65;64;
79141;PMS5003;68550;-26.480;29.234;2023-06-26T10:33:30;66;63;
79141;PMS5003;68550;-26.480;29.234;2023-06-26T10:36:14;66;66;
79141;PMS5003;68550;-26.480;29.234;2023-06-26T10:38:20;59;59;
79141;PMS5003;68550;-26.480;29.234;2023-06-26T10:40:46;63;62;
79141;PMS5003;68550;-26.480;29.234;2023-06-26T10:43:12;64;64;
79141;PMS5003;68550;-26.480;29.234;2023-06-26T10:45:37;64;64;
79141;PMS5003;68550;-26.480;29.234;2023-06-26T10:48:02;63;62;
79141;PMS5003;68550;-26.480;29.234;2023-06-26T10:50:28;62;60;
79141;PMS5003;68550;-26.480;29.234;2023-06-26T10:57:46;64;62;
79141;PMS5003;68550;-26.480;29.234;2023-06-26T11:00:11;54;54;
79141;PMS5003;68550;-26.480;29.234;2023-06-26T11:05:02;57;56;
79141;PMS5003;68550;-26.480;29.234;2023-06-26T11:07:29;63;63;
79141;PMS5003;68550;-26.480;29.234;2023-06-26T11:09:54;60;58;
79141;PMS5003;68550;-26.480;29.234;2023-06-26T11:14:43;55;55;
79141;PMS5003;68550;-26.480;29.234;2023-06-26T11:17:09;55;54;
79141;PMS5003;68550;-26.480;29.234;2023-06-26T11:19:35;61;61;
79141;PMS5003;68550;-26.480;29.234;2023-06-26T11:22:02;56;55;
79141;PMS5003;68550;-26.480;29.234;2023-06-26T11:24:28;60;57;
79141;PMS5003;68550;-26.480;29.234;2023-06-26T11:26:51;58;58;
79141;PMS5003;68550;-26.480;29.234;2023-06-26T11:29:17;57;55;
79141;PMS5003;68550;-26.480;29.234;2023-06-26T11:31:44;55;54;
79141;PMS5003;68550;-26.480;29.234;2023-06-26T11:34:08;58;57;
79141;PMS5003;68550;-26.480;29.234;2023-06-26T11:36:33;59;58;
79141;PMS5003;68550;-26.480;29.234;2023-06-26T11:38:59;50;50;
79141;PMS5003;68550;-26.480;29.234;2023-06-26T11:41:24;55;55;
79141;PMS5003;68550;-26.480;29.234;2023-06-26T11:43:49;53;53;
79141;PMS5003;68550;-26.480;29.234;2023-06-26T11:46:16;55;54;
79141;PMS5003;68550;-26.480;29.234;2023-06-26T11:48:39;54;54;
79141;PMS5003;68550;-26.480;29.234;2023-06-26T11:51:05;50;50;
79141;PMS5003;68550;-26.480;29.234;2023-06-26T11:53:30;53;51;
79141;PMS5003;68550;-26.480;29.234;2023-06-26T11:55:56;59;59;
79141;PMS5003;68550;-26.480;29.234;2023-06-26T11:58:22;54;53;
79141;PMS5003;68550;-26.480;29.234;2023-06-26T12:00:49;57;55;
79141;PMS5003;68550;-26.480;29.234;2023-06-26T12:03:13;49;49;
79141;PMS5003;68550;-26.480;29.234;2023-06-26T12:05:38;51;51;
79141;PMS5003;68550;-26.480;29.234;2023-06-26T12:08:05;47;47;
79141;PMS5003;68550;-26.480;29.234;2023-06-26T12:10:29;52;51;
79141;PMS5003;68550;-26.480;29.234;2023-06-26T12:12:55;53;51;
79141;PMS5003;68550;-26.480;29.234;2023-06-26T12:15:20;52;50;
79141;PMS5003;68550;-26.480;29.234;2023-06-26T12:17:45;51;49;
79141;PMS5003;68550;-26.480;29.234;2023-06-26T12:22:36;52;52;
79141;PMS5003;68550;-26.480;29.234;2023-06-26T12:25:01;55;52;
79141;PMS5003;68550;-26.480;29.234;2023-06-26T12:27:27;47;45;
79141;PMS5003;68550;-26.480;29.234;2023-06-26T12:29:53;46;44;
79141;PMS5003;68550;-26.480;29.234;2023-06-26T12:32:18;47;45;
79141;PMS5003;68550;-26.480;29.234;2023-06-26T12:34:46;51;51;
79141;PMS5003;68550;-26.480;29.234;2023-06-26T12:37:09;46;45;
79141;PMS5003;68550;-26.480;29.234;2023-06-26T12:42:00;50;49;
79141;PMS5003;68550;-26.480;29.234;2023-06-26T12:44:26;50;49;
79141;PMS5003;68550;-26.480;29.234;2023-06-26T12:46:54;48;47;
79141;PMS5003;68550;-26.480;29.234;2023-06-26T12:49:16;51;50;
79141;PMS5003;68550;-26.480;29.234;2023-06-26T12:51:42;48;47;
79141;PMS5003;68550;-26.480;29.234;2023-06-26T12:54:06;45;43;
79141;PMS5003;68550;-26.480;29.234;2023-06-26T12:56:32;44;43;
79141;PMS5003;68550;-26.480;29.234;2023-06-26T12:58:57;44;43;
79141;PMS5003;68550;-26.480;29.234;2023-06-26T13:01:23;44;43;
79141;PMS5003;68550;-26.480;29.234;2023-06-26T13:03:47;43;43;
79141;PMS5003;68550;-26.480;29.234;2023-06-26T13:06:13;44;43;
79141;PMS5003;68550;-26.480;29.234;2023-06-26T13:08:38;48;46;
79141;PMS5003;68550;-26.480;29.234;2023-06-26T13:11:04;53;49;
79141;PMS5003;68550;-26.480;29.234;2023-06-26T13:13:29;46;46;
79141;PMS5003;68550;-26.480;29.234;2023-06-26T13:15:55;46;45;
79141;PMS5003;68550;-26.480;29.234;2023-06-26T13:18:20;42;41;
79141;PMS5003;68550;-26.480;29.234;2023-06-26T13:20:48;53;52;
79141;PMS5003;68550;-26.480;29.234;2023-06-26T13:23:11;48;47;
79141;PMS5003;68550;-26.480;29.234;2023-06-26T13:25:37;51;49;
79141;PMS5003;68550;-26.480;29.234;2023-06-26T13:28:02;47;45;
79141;PMS5003;68550;-26.480;29.234;2023-06-26T13:30:28;53;49;
79141;PMS5003;68550;-26.480;29.234;2023-06-26T13:32:54;43;42;
79141;PMS5003;68550;-26.480;29.234;2023-06-26T13:35:18;44;42;
79141;PMS5003;68550;-26.480;29.234;2023-06-26T13:37:44;40;40;
79141;PMS5003;68550;-26.480;29.234;2023-06-26T13:40:09;44;44;
79141;PMS5003;68550;-26.480;29.234;2023-06-26T13:42:34;45;45;
79141;PMS5003;68550;-26.480;29.234;2023-06-26T13:45:00;45;45;
79141;PMS5003;68550;-26.480;29.234;2023-06-26T13:47:25;41;40;
79141;PMS5003;68550;-26.480;29.234;2023-06-26T13:49:50;54;48;
79141;PMS5003;68550;-26.480;29.234;2023-06-26T13:52:16;51;49;
79141;PMS5003;68550;-26.480;29.234;2023-06-26T13:54:41;44;42;
79141;PMS5003;68550;-26.480;29.234;2023-06-26T13:57:09;47;44;
79141;PMS5003;68550;-26.480;29.234;2023-06-26T13:59:33;46;44;
79141;PMS5003;68550;-26.480;29.234;2023-06-26T14:09:25;40;40;
79141;PMS5003;68550;-26.480;29.234;2023-06-26T14:11:49;45;44;
79141;PMS5003;68550;-26.480;29.234;2023-06-26T14:16:40;48;47;
79141;PMS5003;68550;-26.480;29.234;2023-06-26T14:21:31;46;43;
79141;PMS5003;68550;-26.480;29.234;2023-06-26T14:23:56;43;41;
79141;PMS5003;68550;-26.480;29.234;2023-06-26T14:26:22;39;38;
79141;PMS5003;68550;-26.480;29.234;2023-06-26T14:38:28;39;39;
79141;PMS5003;68550;-26.480;29.234;2023-06-26T14:43:21;42;40;
79141;PMS5003;68550;-26.480;29.234;2023-06-26T15:04:45;38;38;
79141;PMS5003;68550;-26.480;29.234;2023-06-26T15:07:10;44;42;
79141;PMS5003;68550;-26.480;29.234;2023-06-26T15:09:35;41;40;
79141;PMS5003;68550;-26.480;29.234;2023-06-26T15:14:27;42;41;
79141;PMS5003;68550;-26.480;29.234;2023-06-26T15:16:52;41;41;
79141;PMS5003;68550;-26.480;29.234;2023-06-26T15:19:17;45;42;
79141;PMS5003;68550;-26.480;29.234;2023-06-26T15:21:43;38;36;
79141;PMS5003;68550;-26.480;29.234;2023-06-26T15:24:08;48;48;
79141;PMS5003;68550;-26.480;29.234;2023-06-26T15:26:34;38;36;
79141;PMS5003;68550;-26.480;29.234;2023-06-26T15:28:59;41;38;
79141;PMS5003;68550;-26.480;29.234;2023-06-26T15:31:39;38;36;
79141;PMS5003;68550;-26.480;29.234;2023-06-26T15:53:15;49;46;
79141;PMS5003;68550;-26.480;29.234;2023-06-26T15:55:39;55;50;
79141;PMS5003;68550;-26.480;29.234;2023-06-26T15:58:04;51;45;
79141;PMS5003;68550;-26.480;29.234;2023-06-26T16:00:37;48;45;
79141;PMS5003;68550;-26.480;29.234;2023-06-26T16:02:57;49;47;
79141;PMS5003;68550;-26.480;29.234;2023-06-26T16:05:21;53;51;
79141;PMS5003;68550;-26.480;29.234;2023-06-26T16:07:46;53;51;
79141;PMS5003;68550;-26.480;29.234;2023-06-26T16:10:11;52;51;
79141;PMS5003;68550;-26.480;29.234;2023-06-26T16:12:36;50;48;
79141;PMS5003;68550;-26.480;29.234;2023-06-26T16:15:02;51;47;
79141;PMS5003;68550;-26.480;29.234;2023-06-26T16:17:27;64;61;
79141;PMS5003;68550;-26.480;29.234;2023-06-26T16:19:52;69;63;
79141;PMS5003;68550;-26.480;29.234;2023-06-26T16:22:24;87;82;
79141;PMS5003;68550;-26.480;29.234;2023-06-26T16:34:24;132;129;
79141;PMS5003;68550;-26.480;29.234;2023-06-26T17:01:07;150;147;
79141;PMS5003;68550;-26.480;29.234;2023-06-26T17:10:47;155;152;
79141;PMS5003;68550;-26.480;29.234;2023-06-26T17:20:29;160;155;
79141;PMS5003;68550;-26.480;29.234;2023-06-26T17:22:57;155;150;
79141;PMS5003;68550;-26.480;29.234;2023-06-26T17:25:21;157;156;
79141;PMS5003;68550;-26.480;29.234;2023-06-26T17:27:50;164;160;
79141;PMS5003;68550;-26.480;29.234;2023-06-26T17:30:12;156;155;